sensor_id;sensor_type;location;lat;lon;timestamp;P1;durP1;ratioP1;P2;durP2;ratioP2
31848;SDS011;18414;59.352;18.152;2022-09-03T00:00:34;1.73;;;1.57;;
31848;SDS011;18414;59.352;18.152;2022-09-03T00:03:03;3.43;;;1.53;;
31848;SDS011;18414;59.352;18.152;2022-09-03T00:10:50;1.43;;;1.30;;
31848;SDS011;18414;59.352;18.152;2022-09-03T00:13:22;2.70;;;1.37;;
31848;SDS011;18414;59.352;18.152;2022-09-03T00:15:51;2.10;;;1.53;;
31848;SDS011;18414;59.352;18.152;2022-09-03T00:18:19;1.77;;;1.47;;
31848;SDS011;18414;59.352;18.152;2022-09-03T00:20:49;2.63;;;1.60;;
31848;SDS011;18414;59.352;18.152;2022-09-03T00:23:20;2.60;;;1.40;;
31848;SDS011;18414;59.352;18.152;2022-09-03T00:28:22;1.67;;;1.20;;
31848;SDS011;18414;59.352;18.152;2022-09-03T00:31:05;1.87;;;1.67;;
31848;SDS011;18414;59.352;18.152;2022-09-03T00:33:34;2.50;;;1.60;;
31848;SDS011;18414;59.352;18.152;2022-09-03T00:36:05;2.60;;;1.80;;
31848;SDS011;18414;59.352;18.152;2022-09-03T00:38:39;1.90;;;1.50;;
31848;SDS011;18414;59.352;18.152;2022-09-03T00:41:24;2.20;;;1.77;;
31848;SDS011;18414;59.352;18.152;2022-09-03T00:44:02;2.13;;;1.50;;
31848;SDS011;18414;59.352;18.152;2022-09-03T00:49:46;2.73;;;1.60;;
31848;SDS011;18414;59.352;18.152;2022-09-03T00:52:48;2.43;;;1.50;;
31848;SDS011;18414;59.352;18.152;2022-09-03T01:00:44;1.67;;;1.37;;
31848;SDS011;18414;59.352;18.152;2022-09-03T01:03:11;1.93;;;1.50;;
31848;SDS011;18414;59.352;18.152;2022-09-03T01:11:21;1.50;;;1.40;;
31848;SDS011;18414;59.352;18.152;2022-09-03T01:30:25;2.37;;;1.23;;
31848;SDS011;18414;59.352;18.152;2022-09-03T01:32:53;1.60;;;1.50;;
31848;SDS011;18414;59.352;18.152;2022-09-03T01:46:40;1.47;;;1.20;;
31848;SDS011;18414;59.352;18.152;2022-09-03T01:51:53;1.63;;;1.30;;
31848;SDS011;18414;59.352;18.152;2022-09-03T01:54:36;2.77;;;1.60;;
31848;SDS011;18414;59.352;18.152;2022-09-03T02:00:04;2.17;;;1.50;;
31848;SDS011;18414;59.352;18.152;2022-09-03T02:02:32;2.97;;;1.50;;
31848;SDS011;18414;59.352;18.152;2022-09-03T02:07:34;1.50;;;1.40;;
31848;SDS011;18414;59.352;18.152;2022-09-03T02:10:02;1.30;;;1.20;;
31848;SDS011;18414;59.352;18.152;2022-09-03T02:12:31;2.10;;;1.20;;
31848;SDS011;18414;59.352;18.152;2022-09-03T02:15:00;1.83;;;1.50;;
31848;SDS011;18414;59.352;18.152;2022-09-03T02:17:30;1.30;;;1.13;;
31848;SDS011;18414;59.352;18.152;2022-09-03T02:19:57;1.83;;;1.40;;
31848;SDS011;18414;59.352;18.152;2022-09-03T02:22:22;1.40;;;1.30;;
31848;SDS011;18414;59.352;18.152;2022-09-03T02:24:48;1.50;;;1.33;;
31848;SDS011;18414;59.352;18.152;2022-09-03T02:27:13;1.40;;;1.30;;
31848;SDS011;18414;59.352;18.152;2022-09-03T02:29:39;2.07;;;1.20;;
31848;SDS011;18414;59.352;18.152;2022-09-03T02:32:05;2.43;;;1.37;;
31848;SDS011;18414;59.352;18.152;2022-09-03T02:34:30;1.53;;;1.40;;
31848;SDS011;18414;59.352;18.152;2022-09-03T02:36:55;2.83;;;1.43;;
31848;SDS011;18414;59.352;18.152;2022-09-03T02:39:21;1.67;;;1.30;;
31848;SDS011;18414;59.352;18.152;2022-09-03T02:41:49;1.40;;;1.30;;
31848;SDS011;18414;59.352;18.152;2022-09-03T02:44:37;1.17;;;1.13;;
31848;SDS011;18414;59.352;18.152;2022-09-03T02:47:03;1.30;;;1.20;;
31848;SDS011;18414;59.352;18.152;2022-09-03T02:49:30;1.67;;;1.40;;
31848;SDS011;18414;59.352;18.152;2022-09-03T02:51:59;1.57;;;1.40;;
31848;SDS011;18414;59.352;18.152;2022-09-03T02:54:30;4.20;;;1.50;;
31848;SDS011;18414;59.352;18.152;2022-09-03T02:56:57;1.67;;;1.30;;
31848;SDS011;18414;59.352;18.152;2022-09-03T02:59:23;2.23;;;1.30;;
31848;SDS011;18414;59.352;18.152;2022-09-03T03:01:49;1.30;;;1.20;;
31848;SDS011;18414;59.352;18.152;2022-09-03T03:04:14;2.63;;;1.40;;
31848;SDS011;18414;59.352;18.152;2022-09-03T03:06:39;1.30;;;1.20;;
31848;SDS011;18414;59.352;18.152;2022-09-03T03:09:05;1.60;;;1.00;;
31848;SDS011;18414;59.352;18.152;2022-09-03T03:11:32;2.77;;;1.50;;
31848;SDS011;18414;59.352;18.152;2022-09-03T03:13:57;1.50;;;1.40;;
31848;SDS011;18414;59.352;18.152;2022-09-03T03:16:23;3.70;;;1.40;;
31848;SDS011;18414;59.352;18.152;2022-09-03T03:18:48;1.50;;;1.33;;
31848;SDS011;18414;59.352;18.152;2022-09-03T03:21:15;2.80;;;1.30;;
31848;SDS011;18414;59.352;18.152;2022-09-03T03:23:42;2.17;;;1.50;;
31848;SDS011;18414;59.352;18.152;2022-09-03T03:26:08;1.60;;;1.37;;
31848;SDS011;18414;59.352;18.152;2022-09-03T03:28:36;1.77;;;1.30;;
31848;SDS011;18414;59.352;18.152;2022-09-03T03:31:05;1.23;;;1.13;;
31848;SDS011;18414;59.352;18.152;2022-09-03T03:33:32;2.60;;;1.30;;
31848;SDS011;18414;59.352;18.152;2022-09-03T03:35:58;1.20;;;1.10;;
31848;SDS011;18414;59.352;18.152;2022-09-03T03:38:28;1.40;;;1.30;;
31848;SDS011;18414;59.352;18.152;2022-09-03T03:40:53;1.63;;;1.40;;
31848;SDS011;18414;59.352;18.152;2022-09-03T03:43:19;1.33;;;1.03;;
31848;SDS011;18414;59.352;18.152;2022-09-03T03:45:55;1.70;;;1.20;;
31848;SDS011;18414;59.352;18.152;2022-09-03T03:48:21;1.30;;;1.20;;
31848;SDS011;18414;59.352;18.152;2022-09-03T03:50:46;1.87;;;1.53;;
31848;SDS011;18414;59.352;18.152;2022-09-03T03:53:11;1.63;;;1.30;;
31848;SDS011;18414;59.352;18.152;2022-09-03T03:55:37;1.40;;;1.30;;
31848;SDS011;18414;59.352;18.152;2022-09-03T03:58:03;1.83;;;1.10;;
31848;SDS011;18414;59.352;18.152;2022-09-03T04:00:28;1.30;;;1.20;;
31848;SDS011;18414;59.352;18.152;2022-09-03T04:02:53;1.43;;;1.20;;
31848;SDS011;18414;59.352;18.152;2022-09-03T04:05:19;1.70;;;1.10;;
31848;SDS011;18414;59.352;18.152;2022-09-03T04:07:45;1.37;;;0.97;;
31848;SDS011;18414;59.352;18.152;2022-09-03T04:10:11;2.10;;;1.20;;
31848;SDS011;18414;59.352;18.152;2022-09-03T04:12:37;1.20;;;1.10;;
31848;SDS011;18414;59.352;18.152;2022-09-03T04:15:03;1.67;;;0.90;;
31848;SDS011;18414;59.352;18.152;2022-09-03T04:17:30;1.30;;;1.20;;
31848;SDS011;18414;59.352;18.152;2022-09-03T04:19:56;1.67;;;1.10;;
31848;SDS011;18414;59.352;18.152;2022-09-03T04:22:21;1.27;;;1.17;;
31848;SDS011;18414;59.352;18.152;2022-09-03T04:24:47;1.20;;;1.10;;
31848;SDS011;18414;59.352;18.152;2022-09-03T04:27:12;1.93;;;1.10;;
31848;SDS011;18414;59.352;18.152;2022-09-03T04:29:38;3.00;;;1.10;;
31848;SDS011;18414;59.352;18.152;2022-09-03T04:32:03;2.50;;;1.00;;
31848;SDS011;18414;59.352;18.152;2022-09-03T04:34:47;1.10;;;1.03;;
31848;SDS011;18414;59.352;18.152;2022-09-03T04:37:13;1.17;;;1.07;;
31848;SDS011;18414;59.352;18.152;2022-09-03T04:39:40;2.93;;;1.27;;
31848;SDS011;18414;59.352;18.152;2022-09-03T04:42:05;1.40;;;1.23;;
31848;SDS011;18414;59.352;18.152;2022-09-03T04:44:31;1.20;;;1.00;;
31848;SDS011;18414;59.352;18.152;2022-09-03T04:47:01;1.40;;;1.20;;
31848;SDS011;18414;59.352;18.152;2022-09-03T04:49:27;1.73;;;1.10;;
31848;SDS011;18414;59.352;18.152;2022-09-03T04:51:53;1.03;;;1.03;;
31848;SDS011;18414;59.352;18.152;2022-09-03T04:54:18;1.87;;;1.03;;
31848;SDS011;18414;59.352;18.152;2022-09-03T04:56:43;1.27;;;0.83;;
31848;SDS011;18414;59.352;18.152;2022-09-03T04:59:09;1.00;;;0.90;;
31848;SDS011;18414;59.352;18.152;2022-09-03T05:01:36;1.20;;;1.10;;
31848;SDS011;18414;59.352;18.152;2022-09-03T05:04:02;1.57;;;1.03;;
31848;SDS011;18414;59.352;18.152;2022-09-03T05:06:29;1.30;;;1.20;;
31848;SDS011;18414;59.352;18.152;2022-09-03T05:08:55;1.20;;;1.10;;
31848;SDS011;18414;59.352;18.152;2022-09-03T05:11:21;1.30;;;1.10;;
31848;SDS011;18414;59.352;18.152;2022-09-03T05:13:48;1.60;;;1.10;;
31848;SDS011;18414;59.352;18.152;2022-09-03T05:16:15;2.00;;;1.10;;
31848;SDS011;18414;59.352;18.152;2022-09-03T05:18:41;3.60;;;1.03;;
31848;SDS011;18414;59.352;18.152;2022-09-03T05:21:08;1.53;;;1.20;;
31848;SDS011;18414;59.352;18.152;2022-09-03T05:23:35;1.00;;;1.00;;
31848;SDS011;18414;59.352;18.152;2022-09-03T05:26:02;1.83;;;1.30;;
31848;SDS011;18414;59.352;18.152;2022-09-03T05:28:30;1.23;;;1.13;;
31848;SDS011;18414;59.352;18.152;2022-09-03T05:33:25;4.67;;;1.20;;
31848;SDS011;18414;59.352;18.152;2022-09-03T05:35:51;2.20;;;1.33;;
31848;SDS011;18414;59.352;18.152;2022-09-03T05:38:17;1.10;;;1.00;;
31848;SDS011;18414;59.352;18.152;2022-09-03T05:40:43;1.30;;;1.20;;
31848;SDS011;18414;59.352;18.152;2022-09-03T05:43:09;0.80;;;0.80;;
31848;SDS011;18414;59.352;18.152;2022-09-03T05:45:34;3.53;;;1.20;;
31848;SDS011;18414;59.352;18.152;2022-09-03T05:48:01;1.10;;;1.00;;
31848;SDS011;18414;59.352;18.152;2022-09-03T05:50:26;1.10;;;0.90;;
31848;SDS011;18414;59.352;18.152;2022-09-03T05:52:51;1.63;;;0.93;;
31848;SDS011;18414;59.352;18.152;2022-09-03T05:55:18;1.40;;;1.10;;
31848;SDS011;18414;59.352;18.152;2022-09-03T05:57:43;1.20;;;1.10;;
31848;SDS011;18414;59.352;18.152;2022-09-03T06:00:10;0.87;;;0.77;;
31848;SDS011;18414;59.352;18.152;2022-09-03T06:02:35;1.67;;;0.90;;
31848;SDS011;18414;59.352;18.152;2022-09-03T06:05:01;1.20;;;1.10;;
31848;SDS011;18414;59.352;18.152;2022-09-03T06:07:26;2.50;;;0.90;;
31848;SDS011;18414;59.352;18.152;2022-09-03T06:09:51;0.97;;;0.80;;
31848;SDS011;18414;59.352;18.152;2022-09-03T06:12:18;0.90;;;0.80;;
31848;SDS011;18414;59.352;18.152;2022-09-03T06:14:43;1.00;;;0.90;;
31848;SDS011;18414;59.352;18.152;2022-09-03T06:17:09;0.80;;;0.80;;
31848;SDS011;18414;59.352;18.152;2022-09-03T06:19:36;1.63;;;1.00;;
31848;SDS011;18414;59.352;18.152;2022-09-03T06:22:02;1.93;;;0.90;;
31848;SDS011;18414;59.352;18.152;2022-09-03T06:24:28;1.37;;;1.00;;
31848;SDS011;18414;59.352;18.152;2022-09-03T06:26:54;1.47;;;1.00;;
31848;SDS011;18414;59.352;18.152;2022-09-03T06:29:20;1.27;;;0.80;;
31848;SDS011;18414;59.352;18.152;2022-09-03T06:31:46;1.07;;;0.80;;
31848;SDS011;18414;59.352;18.152;2022-09-03T06:34:15;1.33;;;1.00;;
31848;SDS011;18414;59.352;18.152;2022-09-03T06:36:42;1.20;;;1.00;;
31848;SDS011;18414;59.352;18.152;2022-09-03T06:39:07;1.87;;;1.10;;
31848;SDS011;18414;59.352;18.152;2022-09-03T06:41:33;1.53;;;1.03;;
31848;SDS011;18414;59.352;18.152;2022-09-03T06:44:06;1.00;;;0.73;;
31848;SDS011;18414;59.352;18.152;2022-09-03T06:46:36;1.13;;;1.00;;
31848;SDS011;18414;59.352;18.152;2022-09-03T06:49:03;4.30;;;1.20;;
31848;SDS011;18414;59.352;18.152;2022-09-03T06:51:29;0.93;;;0.90;;
31848;SDS011;18414;59.352;18.152;2022-09-03T06:54:00;1.03;;;0.93;;
31848;SDS011;18414;59.352;18.152;2022-09-03T06:56:30;1.53;;;1.00;;
31848;SDS011;18414;59.352;18.152;2022-09-03T06:58:58;0.87;;;0.87;;
31848;SDS011;18414;59.352;18.152;2022-09-03T07:01:25;2.03;;;1.17;;
31848;SDS011;18414;59.352;18.152;2022-09-03T07:03:53;0.83;;;0.83;;
31848;SDS011;18414;59.352;18.152;2022-09-03T07:06:23;0.70;;;0.70;;
31848;SDS011;18414;59.352;18.152;2022-09-03T07:08:49;1.80;;;1.03;;
31848;SDS011;18414;59.352;18.152;2022-09-03T07:11:16;0.70;;;0.70;;
31848;SDS011;18414;59.352;18.152;2022-09-03T07:13:44;0.80;;;0.80;;
31848;SDS011;18414;59.352;18.152;2022-09-03T07:18:38;0.90;;;0.80;;
31848;SDS011;18414;59.352;18.152;2022-09-03T07:21:05;0.60;;;0.60;;
31848;SDS011;18414;59.352;18.152;2022-09-03T07:23:32;1.97;;;0.53;;
31848;SDS011;18414;59.352;18.152;2022-09-03T07:25:59;2.53;;;1.07;;
31848;SDS011;18414;59.352;18.152;2022-09-03T07:28:25;0.80;;;0.80;;
31848;SDS011;18414;59.352;18.152;2022-09-03T07:30:52;1.27;;;0.80;;
31848;SDS011;18414;59.352;18.152;2022-09-03T07:33:17;1.37;;;0.90;;
31848;SDS011;18414;59.352;18.152;2022-09-03T07:35:43;1.33;;;0.80;;
31848;SDS011;18414;59.352;18.152;2022-09-03T07:38:09;2.70;;;1.00;;
31848;SDS011;18414;59.352;18.152;2022-09-03T07:40:35;0.70;;;0.70;;
31848;SDS011;18414;59.352;18.152;2022-09-03T07:43:00;1.67;;;0.90;;
31848;SDS011;18414;59.352;18.152;2022-09-03T07:45:28;1.23;;;0.67;;
31848;SDS011;18414;59.352;18.152;2022-09-03T07:47:53;1.47;;;0.80;;
31848;SDS011;18414;59.352;18.152;2022-09-03T07:50:19;1.27;;;0.90;;
31848;SDS011;18414;59.352;18.152;2022-09-03T07:52:45;1.27;;;1.07;;
31848;SDS011;18414;59.352;18.152;2022-09-03T07:55:11;3.27;;;1.03;;
31848;SDS011;18414;59.352;18.152;2022-09-03T07:57:36;0.83;;;0.83;;
31848;SDS011;18414;59.352;18.152;2022-09-03T08:00:02;2.03;;;1.07;;
31848;SDS011;18414;59.352;18.152;2022-09-03T08:02:28;1.73;;;0.90;;
31848;SDS011;18414;59.352;18.152;2022-09-03T08:04:53;3.90;;;1.10;;
31848;SDS011;18414;59.352;18.152;2022-09-03T08:07:19;1.37;;;1.07;;
31848;SDS011;18414;59.352;18.152;2022-09-03T08:09:45;1.63;;;0.90;;
31848;SDS011;18414;59.352;18.152;2022-09-03T08:12:10;0.70;;;0.70;;
31848;SDS011;18414;59.352;18.152;2022-09-03T08:14:36;1.47;;;0.70;;
31848;SDS011;18414;59.352;18.152;2022-09-03T08:17:02;1.07;;;0.80;;
31848;SDS011;18414;59.352;18.152;2022-09-03T08:19:28;1.33;;;0.93;;
31848;SDS011;18414;59.352;18.152;2022-09-03T08:21:53;1.60;;;0.83;;
31848;SDS011;18414;59.352;18.152;2022-09-03T08:24:19;1.80;;;0.77;;
31848;SDS011;18414;59.352;18.152;2022-09-03T08:26:48;1.38;;;0.70;;
31848;SDS011;18414;59.352;18.152;2022-09-03T08:29:14;0.83;;;0.60;;
31848;SDS011;18414;59.352;18.152;2022-09-03T08:31:40;1.20;;;0.70;;
31848;SDS011;18414;59.352;18.152;2022-09-03T08:34:06;1.73;;;0.90;;
31848;SDS011;18414;59.352;18.152;2022-09-03T08:36:36;0.70;;;0.60;;
31848;SDS011;18414;59.352;18.152;2022-09-03T08:39:04;0.97;;;0.70;;
31848;SDS011;18414;59.352;18.152;2022-09-03T08:49:18;1.53;;;0.73;;
31848;SDS011;18414;59.352;18.152;2022-09-03T08:51:59;1.17;;;0.70;;
31848;SDS011;18414;59.352;18.152;2022-09-03T08:54:28;2.00;;;0.60;;
31848;SDS011;18414;59.352;18.152;2022-09-03T08:56:55;0.50;;;0.50;;
31848;SDS011;18414;59.352;18.152;2022-09-03T08:59:24;0.70;;;0.70;;
31848;SDS011;18414;59.352;18.152;2022-09-03T09:01:52;0.50;;;0.50;;
31848;SDS011;18414;59.352;18.152;2022-09-03T09:12:28;0.65;;;0.65;;
31848;SDS011;18414;59.352;18.152;2022-09-03T09:17:42;1.45;;;0.80;;
31848;SDS011;18414;59.352;18.152;2022-09-03T09:22:51;1.52;;;0.70;;
31848;SDS011;18414;59.352;18.152;2022-09-03T09:25:21;1.02;;;0.88;;
31848;SDS011;18414;59.352;18.152;2022-09-03T09:30:24;1.17;;;0.75;;
31848;SDS011;18414;59.352;18.152;2022-09-03T09:32:49;0.77;;;0.70;;
31848;SDS011;18414;59.352;18.152;2022-09-03T09:35:15;1.23;;;0.70;;
31848;SDS011;18414;59.352;18.152;2022-09-03T09:37:52;1.42;;;0.70;;
31848;SDS011;18414;59.352;18.152;2022-09-03T09:40:23;1.05;;;0.80;;
31848;SDS011;18414;59.352;18.152;2022-09-03T09:45:41;0.80;;;0.65;;
31848;SDS011;18414;59.352;18.152;2022-09-03T09:48:27;1.42;;;0.60;;
31848;SDS011;18414;59.352;18.152;2022-09-03T09:53:44;0.55;;;0.55;;
31848;SDS011;18414;59.352;18.152;2022-09-03T09:56:20;1.65;;;0.80;;
31848;SDS011;18414;59.352;18.152;2022-09-03T09:58:46;1.38;;;0.70;;
31848;SDS011;18414;59.352;18.152;2022-09-03T10:01:22;2.53;;;0.93;;
31848;SDS011;18414;59.352;18.152;2022-09-03T10:03:50;2.75;;;1.00;;
31848;SDS011;18414;59.352;18.152;2022-09-03T10:06:22;0.85;;;0.68;;
31848;SDS011;18414;59.352;18.152;2022-09-03T10:09:11;0.57;;;0.50;;
31848;SDS011;18414;59.352;18.152;2022-09-03T10:11:40;1.30;;;0.68;;
31848;SDS011;18414;59.352;18.152;2022-09-03T10:14:10;0.65;;;0.65;;
31848;SDS011;18414;59.352;18.152;2022-09-03T10:16:41;0.70;;;0.70;;
31848;SDS011;18414;59.352;18.152;2022-09-03T10:19:17;1.08;;;0.70;;
31848;SDS011;18414;59.352;18.152;2022-09-03T10:21:46;1.05;;;0.60;;
31848;SDS011;18414;59.352;18.152;2022-09-03T10:24:26;0.98;;;0.50;;
31848;SDS011;18414;59.352;18.152;2022-09-03T10:26:57;0.75;;;0.60;;
31848;SDS011;18414;59.352;18.152;2022-09-03T10:29:23;0.52;;;0.50;;
31848;SDS011;18414;59.352;18.152;2022-09-03T10:34:26;2.35;;;0.60;;
31848;SDS011;18414;59.352;18.152;2022-09-03T10:42:18;2.55;;;0.65;;
31848;SDS011;18414;59.352;18.152;2022-09-03T10:55:59;0.60;;;0.60;;
31848;SDS011;18414;59.352;18.152;2022-09-03T11:01:03;1.70;;;0.82;;
31848;SDS011;18414;59.352;18.152;2022-09-03T11:06:10;0.68;;;0.50;;
31848;SDS011;18414;59.352;18.152;2022-09-03T11:08:57;0.60;;;0.60;;
31848;SDS011;18414;59.352;18.152;2022-09-03T11:11:35;0.60;;;0.60;;
31848;SDS011;18414;59.352;18.152;2022-09-03T11:14:07;0.60;;;0.52;;
31848;SDS011;18414;59.352;18.152;2022-09-03T11:16:36;0.50;;;0.50;;
31848;SDS011;18414;59.352;18.152;2022-09-03T11:19:06;0.40;;;0.40;;
31848;SDS011;18414;59.352;18.152;2022-09-03T11:21:35;0.50;;;0.50;;
31848;SDS011;18414;59.352;18.152;2022-09-03T11:24:21;0.80;;;0.60;;
31848;SDS011;18414;59.352;18.152;2022-09-03T11:27:02;1.98;;;0.70;;
31848;SDS011;18414;59.352;18.152;2022-09-03T11:29:48;0.50;;;0.50;;
31848;SDS011;18414;59.352;18.152;2022-09-03T11:32:19;0.73;;;0.50;;
31848;SDS011;18414;59.352;18.152;2022-09-03T11:34:50;0.73;;;0.50;;
31848;SDS011;18414;59.352;18.152;2022-09-03T11:37:28;0.65;;;0.60;;
31848;SDS011;18414;59.352;18.152;2022-09-03T11:40:05;2.38;;;0.60;;
31848;SDS011;18414;59.352;18.152;2022-09-03T11:42:36;0.98;;;0.50;;
31848;SDS011;18414;59.352;18.152;2022-09-03T11:47:59;0.52;;;0.52;;
31848;SDS011;18414;59.352;18.152;2022-09-03T11:50:31;0.60;;;0.60;;
31848;SDS011;18414;59.352;18.152;2022-09-03T11:55:50;0.35;;;0.35;;
31848;SDS011;18414;59.352;18.152;2022-09-03T11:58:40;0.60;;;0.50;;
31848;SDS011;18414;59.352;18.152;2022-09-03T12:01:14;0.50;;;0.50;;
31848;SDS011;18414;59.352;18.152;2022-09-03T12:14:32;0.50;;;0.50;;
31848;SDS011;18414;59.352;18.152;2022-09-03T12:19:54;1.17;;;0.70;;
31848;SDS011;18414;59.352;18.152;2022-09-03T12:22:23;1.23;;;0.60;;
31848;SDS011;18414;59.352;18.152;2022-09-03T12:24:50;0.50;;;0.50;;
31848;SDS011;18414;59.352;18.152;2022-09-03T12:27:21;0.50;;;0.50;;
31848;SDS011;18414;59.352;18.152;2022-09-03T12:30:03;0.88;;;0.52;;
31848;SDS011;18414;59.352;18.152;2022-09-03T12:32:30;0.60;;;0.60;;
31848;SDS011;18414;59.352;18.152;2022-09-03T12:35:23;1.27;;;0.50;;
31848;SDS011;18414;59.352;18.152;2022-09-03T12:37:50;0.50;;;0.50;;
31848;SDS011;18414;59.352;18.152;2022-09-03T12:42:46;0.73;;;0.50;;
31848;SDS011;18414;59.352;18.152;2022-09-03T12:45:12;1.42;;;0.75;;
31848;SDS011;18414;59.352;18.152;2022-09-03T12:47:40;1.25;;;0.73;;
31848;SDS011;18414;59.352;18.152;2022-09-03T12:50:11;1.00;;;0.55;;
31848;SDS011;18414;59.352;18.152;2022-09-03T12:52:51;0.55;;;0.55;;
31848;SDS011;18414;59.352;18.152;2022-09-03T12:55:26;0.45;;;0.45;;
31848;SDS011;18414;59.352;18.152;2022-09-03T12:58:17;0.55;;;0.45;;
31848;SDS011;18414;59.352;18.152;2022-09-03T13:01:07;0.55;;;0.55;;
31848;SDS011;18414;59.352;18.152;2022-09-03T13:03:52;2.25;;;0.60;;
31848;SDS011;18414;59.352;18.152;2022-09-03T13:06:46;1.05;;;0.50;;
31848;SDS011;18414;59.352;18.152;2022-09-03T13:09:17;0.68;;;0.55;;
31848;SDS011;18414;59.352;18.152;2022-09-03T13:11:45;0.73;;;0.60;;
31848;SDS011;18414;59.352;18.152;2022-09-03T13:14:11;1.58;;;0.50;;
31848;SDS011;18414;59.352;18.152;2022-09-03T13:30:21;1.55;;;0.60;;
31848;SDS011;18414;59.352;18.152;2022-09-03T13:33:01;1.17;;;0.68;;
31848;SDS011;18414;59.352;18.152;2022-09-03T13:46:40;1.25;;;0.50;;
31848;SDS011;18414;59.352;18.152;2022-09-03T14:00:49;0.57;;;0.52;;
31848;SDS011;18414;59.352;18.152;2022-09-03T14:03:30;0.57;;;0.57;;
31848;SDS011;18414;59.352;18.152;2022-09-03T14:06:08;0.68;;;0.50;;
31848;SDS011;18414;59.352;18.152;2022-09-03T14:14:19;0.68;;;0.60;;
31848;SDS011;18414;59.352;18.152;2022-09-03T14:17:00;0.50;;;0.50;;
31848;SDS011;18414;59.352;18.152;2022-09-03T14:22:16;0.60;;;0.60;;
31848;SDS011;18414;59.352;18.152;2022-09-03T14:24:54;2.83;;;0.60;;
31848;SDS011;18414;59.352;18.152;2022-09-03T14:27:23;0.57;;;0.55;;
31848;SDS011;18414;59.352;18.152;2022-09-03T14:30:33;0.57;;;0.57;;
31848;SDS011;18414;59.352;18.152;2022-09-03T14:35:47;1.00;;;0.80;;
31848;SDS011;18414;59.352;18.152;2022-09-03T14:38:25;0.75;;;0.70;;
31848;SDS011;18414;59.352;18.152;2022-09-03T14:48:47;0.98;;;0.60;;
31848;SDS011;18414;59.352;18.152;2022-09-03T15:05:06;1.52;;;0.65;;
31848;SDS011;18414;59.352;18.152;2022-09-03T15:07:39;0.77;;;0.65;;
31848;SDS011;18414;59.352;18.152;2022-09-03T15:10:21;1.02;;;0.73;;
31848;SDS011;18414;59.352;18.152;2022-09-03T15:12:58;0.93;;;0.85;;
31848;SDS011;18414;59.352;18.152;2022-09-03T15:15:33;1.20;;;0.80;;
31848;SDS011;18414;59.352;18.152;2022-09-03T15:20:53;0.75;;;0.70;;
31848;SDS011;18414;59.352;18.152;2022-09-03T15:37:35;0.70;;;0.70;;
31848;SDS011;18414;59.352;18.152;2022-09-03T15:40:21;0.70;;;0.63;;
31848;SDS011;18414;59.352;18.152;2022-09-03T15:43:09;2.28;;;0.70;;
31848;SDS011;18414;59.352;18.152;2022-09-03T15:48:44;1.00;;;0.73;;
31848;SDS011;18414;59.352;18.152;2022-09-03T15:51:32;0.70;;;0.70;;
31848;SDS011;18414;59.352;18.152;2022-09-03T16:07:51;1.48;;;0.75;;
31848;SDS011;18414;59.352;18.152;2022-09-03T16:10:26;2.35;;;0.80;;
31848;SDS011;18414;59.352;18.152;2022-09-03T16:16:09;0.70;;;0.70;;
31848;SDS011;18414;59.352;18.152;2022-09-03T16:18:54;1.48;;;0.88;;
31848;SDS011;18414;59.352;18.152;2022-09-03T16:23:55;1.58;;;0.70;;
31848;SDS011;18414;59.352;18.152;2022-09-03T16:26:28;1.67;;;0.60;;
31848;SDS011;18414;59.352;18.152;2022-09-03T16:29:05;1.70;;;0.80;;
31848;SDS011;18414;59.352;18.152;2022-09-03T16:39:11;1.05;;;0.60;;
31848;SDS011;18414;59.352;18.152;2022-09-03T16:42:23;0.57;;;0.57;;
31848;SDS011;18414;59.352;18.152;2022-09-03T16:50:43;0.60;;;0.60;;
31848;SDS011;18414;59.352;18.152;2022-09-03T16:53:01;1.13;;;0.80;;
31848;SDS011;18414;59.352;18.152;2022-09-03T17:09:50;0.80;;;0.70;;
31848;SDS011;18414;59.352;18.152;2022-09-03T17:12:41;1.75;;;0.82;;
31848;SDS011;18414;59.352;18.152;2022-09-03T17:23:08;1.52;;;0.68;;
31848;SDS011;18414;59.352;18.152;2022-09-03T17:31:32;0.98;;;0.70;;
31848;SDS011;18414;59.352;18.152;2022-09-03T17:37:31;0.98;;;0.75;;
31848;SDS011;18414;59.352;18.152;2022-09-03T17:42:31;2.05;;;1.02;;
31848;SDS011;18414;59.352;18.152;2022-09-03T17:45:10;2.67;;;0.70;;
31848;SDS011;18414;59.352;18.152;2022-09-03T17:52:48;2.67;;;0.80;;
31848;SDS011;18414;59.352;18.152;2022-09-03T17:56:01;2.38;;;0.88;;
31848;SDS011;18414;59.352;18.152;2022-09-03T17:58:30;1.00;;;0.80;;
31848;SDS011;18414;59.352;18.152;2022-09-03T18:01:02;2.00;;;0.77;;
31848;SDS011;18414;59.352;18.152;2022-09-03T18:06:23;0.90;;;0.80;;
31848;SDS011;18414;59.352;18.152;2022-09-03T18:16:46;3.45;;;0.90;;
31848;SDS011;18414;59.352;18.152;2022-09-03T18:19:27;1.30;;;1.00;;
31848;SDS011;18414;59.352;18.152;2022-09-03T18:22:45;1.35;;;0.85;;
31848;SDS011;18414;59.352;18.152;2022-09-03T18:25:34;1.42;;;0.90;;
31848;SDS011;18414;59.352;18.152;2022-09-03T18:28:22;2.33;;;0.80;;
31848;SDS011;18414;59.352;18.152;2022-09-03T18:31:51;2.05;;;1.10;;
31848;SDS011;18414;59.352;18.152;2022-09-03T18:34:36;1.42;;;0.98;;
31848;SDS011;18414;59.352;18.152;2022-09-03T18:37:21;1.10;;;0.70;;
31848;SDS011;18414;59.352;18.152;2022-09-03T18:40:08;1.75;;;0.70;;
31848;SDS011;18414;59.352;18.152;2022-09-03T18:49:00;0.80;;;0.80;;
31848;SDS011;18414;59.352;18.152;2022-09-03T18:55:00;1.38;;;1.10;;
31848;SDS011;18414;59.352;18.152;2022-09-03T18:58:06;1.33;;;0.80;;
31848;SDS011;18414;59.352;18.152;2022-09-03T19:07:13;1.73;;;1.00;;
31848;SDS011;18414;59.352;18.152;2022-09-03T19:16:17;1.73;;;1.10;;
31848;SDS011;18414;59.352;18.152;2022-09-03T19:19:07;1.97;;;1.20;;
31848;SDS011;18414;59.352;18.152;2022-09-03T19:22:26;1.30;;;1.00;;
31848;SDS011;18414;59.352;18.152;2022-09-03T19:25:19;1.57;;;1.13;;
31848;SDS011;18414;59.352;18.152;2022-09-03T19:51:48;2.70;;;1.30;;
31848;SDS011;18414;59.352;18.152;2022-09-03T19:54:40;1.30;;;1.17;;
31848;SDS011;18414;59.352;18.152;2022-09-03T19:57:24;1.83;;;1.15;;
31848;SDS011;18414;59.352;18.152;2022-09-03T20:00:09;1.63;;;1.08;;
31848;SDS011;18414;59.352;18.152;2022-09-03T20:02:54;2.03;;;1.20;;
31848;SDS011;18414;59.352;18.152;2022-09-03T20:05:40;4.10;;;1.30;;
31848;SDS011;18414;59.352;18.152;2022-09-03T20:08:24;2.15;;;1.17;;
31848;SDS011;18414;59.352;18.152;2022-09-03T20:11:14;1.50;;;1.30;;
31848;SDS011;18414;59.352;18.152;2022-09-03T20:13:42;1.60;;;1.40;;
31848;SDS011;18414;59.352;18.152;2022-09-03T20:16:48;1.77;;;1.37;;
31848;SDS011;18414;59.352;18.152;2022-09-03T20:22:00;2.77;;;1.37;;
31848;SDS011;18414;59.352;18.152;2022-09-03T20:30:29;1.50;;;1.20;;
31848;SDS011;18414;59.352;18.152;2022-09-03T20:35:36;1.20;;;1.10;;
31848;SDS011;18414;59.352;18.152;2022-09-03T20:49:40;1.00;;;0.90;;
31848;SDS011;18414;59.352;18.152;2022-09-03T20:52:52;1.57;;;1.47;;
31848;SDS011;18414;59.352;18.152;2022-09-03T20:55:09;1.87;;;1.20;;
31848;SDS011;18414;59.352;18.152;2022-09-03T20:57:55;3.00;;;1.40;;
31848;SDS011;18414;59.352;18.152;2022-09-03T21:00:41;2.53;;;1.43;;
31848;SDS011;18414;59.352;18.152;2022-09-03T21:03:21;3.63;;;1.40;;
31848;SDS011;18414;59.352;18.152;2022-09-03T21:20:30;3.90;;;1.17;;
31848;SDS011;18414;59.352;18.152;2022-09-03T21:23:15;1.73;;;1.10;;
31848;SDS011;18414;59.352;18.152;2022-09-03T21:25:47;3.05;;;1.23;;
31848;SDS011;18414;59.352;18.152;2022-09-03T21:28:18;1.43;;;1.07;;
31848;SDS011;18414;59.352;18.152;2022-09-03T21:31:34;1.83;;;1.20;;
31848;SDS011;18414;59.352;18.152;2022-09-03T21:33:47;2.30;;;1.30;;
31848;SDS011;18414;59.352;18.152;2022-09-03T21:36:15;2.27;;;1.70;;